sensor_id;sensor_type;location;lat;lon;timestamp;temperature;humidity
31661;DHT22;18267;52.234;7.444;2024-01-07T00:01:46;2.10;99.90
31661;DHT22;18267;52.234;7.444;2024-01-07T00:04:12;2.10;99.90
31661;DHT22;18267;52.234;7.444;2024-01-07T00:06:37;2.10;99.90
31661;DHT22;18267;52.234;7.444;2024-01-07T00:09:03;2.10;99.90
31661;DHT22;18267;52.234;7.444;2024-01-07T00:11:28;2.10;99.90
31661;DHT22;18267;52.234;7.444;2024-01-07T00:13:54;2.00;99.90
31661;DHT22;18267;52.234;7.444;2024-01-07T00:16:20;2.00;99.90
31661;DHT22;18267;52.234;7.444;2024-01-07T00:18:45;2.20;99.90
31661;DHT22;18267;52.234;7.444;2024-01-07T00:21:11;2.20;99.90
31661;DHT22;18267;52.234;7.444;2024-01-07T00:23:36;2.20;99.90
31661;DHT22;18267;52.234;7.444;2024-01-07T00:26:02;2.20;99.90
31661;DHT22;18267;52.234;7.444;2024-01-07T00:28:28;2.20;99.90
31661;DHT22;18267;52.234;7.444;2024-01-07T00:30:54;2.10;99.90
31661;DHT22;18267;52.234;7.444;2024-01-07T00:33:19;2.10;99.90
31661;DHT22;18267;52.234;7.444;2024-01-07T00:35:45;2.00;99.90
31661;DHT22;18267;52.234;7.444;2024-01-07T00:38:10;2.10;99.90
31661;DHT22;18267;52.234;7.444;2024-01-07T00:40:36;2.20;99.90
31661;DHT22;18267;52.234;7.444;2024-01-07T00:43:03;2.20;99.90
31661;DHT22;18267;52.234;7.444;2024-01-07T00:45:29;2.00;99.90
31661;DHT22;18267;52.234;7.444;2024-01-07T00:47:54;2.00;99.90
31661;DHT22;18267;52.234;7.444;2024-01-07T00:50:20;2.00;99.90
31661;DHT22;18267;52.234;7.444;2024-01-07T00:52:45;2.00;99.90
31661;DHT22;18267;52.234;7.444;2024-01-07T00:55:11;1.90;99.90
31661;DHT22;18267;52.234;7.444;2024-01-07T00:57:37;1.80;99.90
31661;DHT22;18267;52.234;7.444;2024-01-07T01:00:06;1.80;99.90
31661;DHT22;18267;52.234;7.444;2024-01-07T01:02:33;1.90;99.90
31661;DHT22;18267;52.234;7.444;2024-01-07T01:04:59;1.80;99.90
31661;DHT22;18267;52.234;7.444;2024-01-07T01:07:24;1.90;99.90
31661;DHT22;18267;52.234;7.444;2024-01-07T01:09:50;1.80;99.90
31661;DHT22;18267;52.234;7.444;2024-01-07T01:12:15;1.90;99.90
31661;DHT22;18267;52.234;7.444;2024-01-07T01:14:41;1.80;99.90
31661;DHT22;18267;52.234;7.444;2024-01-07T01:17:06;1.80;99.90
31661;DHT22;18267;52.234;7.444;2024-01-07T01:19:32;1.80;99.90
31661;DHT22;18267;52.234;7.444;2024-01-07T01:21:57;1.70;99.90
31661;DHT22;18267;52.234;7.444;2024-01-07T01:24:23;1.80;99.90
31661;DHT22;18267;52.234;7.444;2024-01-07T01:26:49;1.80;99.90
31661;DHT22;18267;52.234;7.444;2024-01-07T01:29:14;1.80;99.90
31661;DHT22;18267;52.234;7.444;2024-01-07T01:31:40;1.80;99.90
31661;DHT22;18267;52.234;7.444;2024-01-07T01:34:05;1.80;99.90
31661;DHT22;18267;52.234;7.444;2024-01-07T01:36:31;1.80;99.90
31661;DHT22;18267;52.234;7.444;2024-01-07T01:38:57;1.80;99.90
31661;DHT22;18267;52.234;7.444;2024-01-07T01:41:22;1.90;99.90
31661;DHT22;18267;52.234;7.444;2024-01-07T01:43:48;1.90;99.90
31661;DHT22;18267;52.234;7.444;2024-01-07T01:46:14;1.90;99.90
31661;DHT22;18267;52.234;7.444;2024-01-07T01:48:40;1.90;99.90
31661;DHT22;18267;52.234;7.444;2024-01-07T01:51:07;1.90;99.90
31661;DHT22;18267;52.234;7.444;2024-01-07T01:53:39;1.90;99.90
31661;DHT22;18267;52.234;7.444;2024-01-07T01:56:05;1.90;99.90
31661;DHT22;18267;52.234;7.444;2024-01-07T01:58:32;1.90;99.90
31661;DHT22;18267;52.234;7.444;2024-01-07T02:00:58;1.90;99.90
31661;DHT22;18267;52.234;7.444;2024-01-07T02:03:24;1.90;99.90
31661;DHT22;18267;52.234;7.444;2024-01-07T02:05:51;1.70;99.90
31661;DHT22;18267;52.234;7.444;2024-01-07T02:08:20;1.60;99.90
31661;DHT22;18267;52.234;7.444;2024-01-07T02:10:46;1.60;99.90
31661;DHT22;18267;52.234;7.444;2024-01-07T02:13:11;1.70;99.90
31661;DHT22;18267;52.234;7.444;2024-01-07T02:15:37;1.70;99.90
31661;DHT22;18267;52.234;7.444;2024-01-07T02:18:03;1.70;99.90
31661;DHT22;18267;52.234;7.444;2024-01-07T02:20:28;1.70;99.90
31661;DHT22;18267;52.234;7.444;2024-01-07T02:22:54;1.70;99.90
31661;DHT22;18267;52.234;7.444;2024-01-07T02:25:19;1.60;99.90
31661;DHT22;18267;52.234;7.444;2024-01-07T02:27:45;1.50;99.90
31661;DHT22;18267;52.234;7.444;2024-01-07T02:30:11;1.50;99.90
31661;DHT22;18267;52.234;7.444;2024-01-07T02:32:36;1.60;99.90
31661;DHT22;18267;52.234;7.444;2024-01-07T02:35:03;1.50;99.90
31661;DHT22;18267;52.234;7.444;2024-01-07T02:37:29;1.60;99.90
31661;DHT22;18267;52.234;7.444;2024-01-07T02:39:54;1.70;99.90
31661;DHT22;18267;52.234;7.444;2024-01-07T02:42:20;1.70;99.90
31661;DHT22;18267;52.234;7.444;2024-01-07T02:44:45;1.70;99.90
31661;DHT22;18267;52.234;7.444;2024-01-07T02:47:11;1.70;99.90
31661;DHT22;18267;52.234;7.444;2024-01-07T02:49:36;1.60;99.90
31661;DHT22;18267;52.234;7.444;2024-01-07T02:52:02;1.70;99.90
31661;DHT22;18267;52.234;7.444;2024-01-07T02:54:28;1.70;99.90
31661;DHT22;18267;52.234;7.444;2024-01-07T02:56:53;1.80;99.90
31661;DHT22;18267;52.234;7.444;2024-01-07T02:59:19;1.70;99.90
31661;DHT22;18267;52.234;7.444;2024-01-07T03:01:45;1.70;99.90
31661;DHT22;18267;52.234;7.444;2024-01-07T03:04:13;1.70;99.90
31661;DHT22;18267;52.234;7.444;2024-01-07T03:06:39;1.70;99.90
31661;DHT22;18267;52.234;7.444;2024-01-07T03:09:04;1.50;99.90
31661;DHT22;18267;52.234;7.444;2024-01-07T03:11:30;1.40;99.90
31661;DHT22;18267;52.234;7.444;2024-01-07T03:13:56;1.50;99.90
31661;DHT22;18267;52.234;7.444;2024-01-07T03:16:22;1.60;99.90
31661;DHT22;18267;52.234;7.444;2024-01-07T03:18:48;1.60;99.90
31661;DHT22;18267;52.234;7.444;2024-01-07T03:21:21;1.50;99.90
31661;DHT22;18267;52.234;7.444;2024-01-07T03:23:48;1.50;99.90
31661;DHT22;18267;52.234;7.444;2024-01-07T03:26:14;1.50;99.90
31661;DHT22;18267;52.234;7.444;2024-01-07T03:28:40;1.50;99.90
31661;DHT22;18267;52.234;7.444;2024-01-07T03:31:08;1.70;99.90
31661;DHT22;18267;52.234;7.444;2024-01-07T03:33:34;1.60;99.90
31661;DHT22;18267;52.234;7.444;2024-01-07T03:36:00;1.70;99.90
31661;DHT22;18267;52.234;7.444;2024-01-07T03:38:25;1.60;99.90
31661;DHT22;18267;52.234;7.444;2024-01-07T03:40:51;1.60;99.90
31661;DHT22;18267;52.234;7.444;2024-01-07T03:43:16;1.60;99.90
31661;DHT22;18267;52.234;7.444;2024-01-07T03:45:42;1.70;99.90
31661;DHT22;18267;52.234;7.444;2024-01-07T03:48:08;1.80;99.90
31661;DHT22;18267;52.234;7.444;2024-01-07T03:50:34;1.70;99.90
31661;DHT22;18267;52.234;7.444;2024-01-07T03:53:00;1.60;99.90
31661;DHT22;18267;52.234;7.444;2024-01-07T03:55:25;1.60;99.90
31661;DHT22;18267;52.234;7.444;2024-01-07T03:57:51;1.50;99.90
31661;DHT22;18267;52.234;7.444;2024-01-07T04:00:16;1.50;99.90
31661;DHT22;18267;52.234;7.444;2024-01-07T04:02:42;1.50;99.90
31661;DHT22;18267;52.234;7.444;2024-01-07T04:05:09;1.40;99.90
31661;DHT22;18267;52.234;7.444;2024-01-07T04:07:34;1.50;99.90
31661;DHT22;18267;52.234;7.444;2024-01-07T04:10:00;1.50;99.90
31661;DHT22;18267;52.234;7.444;2024-01-07T04:12:26;1.40;99.90
31661;DHT22;18267;52.234;7.444;2024-01-07T04:14:51;1.40;99.90
31661;DHT22;18267;52.234;7.444;2024-01-07T04:17:17;1.40;99.90
31661;DHT22;18267;52.234;7.444;2024-01-07T04:19:42;1.40;99.90
31661;DHT22;18267;52.234;7.444;2024-01-07T04:22:08;1.30;99.90
31661;DHT22;18267;52.234;7.444;2024-01-07T04:24:33;1.30;99.90
31661;DHT22;18267;52.234;7.444;2024-01-07T04:26:59;1.30;99.90
31661;DHT22;18267;52.234;7.444;2024-01-07T04:29:24;1.30;99.90
31661;DHT22;18267;52.234;7.444;2024-01-07T04:31:50;1.40;99.90
31661;DHT22;18267;52.234;7.444;2024-01-07T04:34:15;1.40;99.90
31661;DHT22;18267;52.234;7.444;2024-01-07T04:36:41;1.40;99.90
31661;DHT22;18267;52.234;7.444;2024-01-07T04:39:06;1.40;99.90
31661;DHT22;18267;52.234;7.444;2024-01-07T04:41:32;1.30;99.90
31661;DHT22;18267;52.234;7.444;2024-01-07T04:43:57;1.30;99.90
31661;DHT22;18267;52.234;7.444;2024-01-07T04:46:23;1.30;99.90
31661;DHT22;18267;52.234;7.444;2024-01-07T04:48:48;1.30;99.90
31661;DHT22;18267;52.234;7.444;2024-01-07T04:51:14;1.20;99.90
31661;DHT22;18267;52.234;7.444;2024-01-07T04:53:39;1.20;99.90
31661;DHT22;18267;52.234;7.444;2024-01-07T04:56:05;1.30;99.90
31661;DHT22;18267;52.234;7.444;2024-01-07T04:58:31;1.40;99.90
31661;DHT22;18267;52.234;7.444;2024-01-07T05:00:56;1.40;99.90
31661;DHT22;18267;52.234;7.444;2024-01-07T05:03:22;1.40;99.90
31661;DHT22;18267;52.234;7.444;2024-01-07T05:05:48;1.30;99.90
31661;DHT22;18267;52.234;7.444;2024-01-07T05:08:13;1.30;99.90
31661;DHT22;18267;52.234;7.444;2024-01-07T05:10:39;1.30;99.90
31661;DHT22;18267;52.234;7.444;2024-01-07T05:13:04;1.30;99.90
31661;DHT22;18267;52.234;7.444;2024-01-07T05:15:32;1.20;99.90
31661;DHT22;18267;52.234;7.444;2024-01-07T05:17:58;1.20;99.90
31661;DHT22;18267;52.234;7.444;2024-01-07T05:20:23;1.20;99.90
31661;DHT22;18267;52.234;7.444;2024-01-07T05:22:49;1.30;99.90
31661;DHT22;18267;52.234;7.444;2024-01-07T05:25:14;1.40;99.90
31661;DHT22;18267;52.234;7.444;2024-01-07T05:27:40;1.30;99.90
31661;DHT22;18267;52.234;7.444;2024-01-07T05:30:06;1.30;99.90
31661;DHT22;18267;52.234;7.444;2024-01-07T05:32:33;1.30;99.90
31661;DHT22;18267;52.234;7.444;2024-01-07T05:34:59;1.20;99.90
31661;DHT22;18267;52.234;7.444;2024-01-07T05:37:24;1.10;99.90
31661;DHT22;18267;52.234;7.444;2024-01-07T05:39:50;1.10;99.90
31661;DHT22;18267;52.234;7.444;2024-01-07T05:42:15;1.00;99.90
31661;DHT22;18267;52.234;7.444;2024-01-07T05:44:41;1.00;99.90
31661;DHT22;18267;52.234;7.444;2024-01-07T05:47:07;1.10;99.90
31661;DHT22;18267;52.234;7.444;2024-01-07T05:49:32;1.10;99.90
31661;DHT22;18267;52.234;7.444;2024-01-07T05:51:58;1.10;99.90
31661;DHT22;18267;52.234;7.444;2024-01-07T05:54:23;1.10;99.90
31661;DHT22;18267;52.234;7.444;2024-01-07T05:56:49;1.00;99.90
31661;DHT22;18267;52.234;7.444;2024-01-07T05:59:15;1.10;99.90
31661;DHT22;18267;52.234;7.444;2024-01-07T06:01:40;1.00;99.90
31661;DHT22;18267;52.234;7.444;2024-01-07T06:04:06;1.10;99.90
31661;DHT22;18267;52.234;7.444;2024-01-07T06:06:31;1.10;99.90
31661;DHT22;18267;52.234;7.444;2024-01-07T06:08:59;0.90;99.90
31661;DHT22;18267;52.234;7.444;2024-01-07T06:11:24;0.90;99.90
31661;DHT22;18267;52.234;7.444;2024-01-07T06:13:50;0.90;99.90
31661;DHT22;18267;52.234;7.444;2024-01-07T06:16:15;0.90;99.90
31661;DHT22;18267;52.234;7.444;2024-01-07T06:18:41;1.00;99.90
31661;DHT22;18267;52.234;7.444;2024-01-07T06:21:06;0.90;99.90
31661;DHT22;18267;52.234;7.444;2024-01-07T06:23:33;0.80;99.90
31661;DHT22;18267;52.234;7.444;2024-01-07T06:25:58;0.70;99.90
31661;DHT22;18267;52.234;7.444;2024-01-07T06:28:24;0.80;99.90
31661;DHT22;18267;52.234;7.444;2024-01-07T06:30:50;0.80;99.90
31661;DHT22;18267;52.234;7.444;2024-01-07T06:33:15;0.80;99.90
31661;DHT22;18267;52.234;7.444;2024-01-07T06:35:41;0.80;99.90
31661;DHT22;18267;52.234;7.444;2024-01-07T06:38:06;0.80;99.90
31661;DHT22;18267;52.234;7.444;2024-01-07T06:40:32;0.70;99.90
31661;DHT22;18267;52.234;7.444;2024-01-07T06:42:58;0.80;99.90
31661;DHT22;18267;52.234;7.444;2024-01-07T06:45:23;0.90;99.90
31661;DHT22;18267;52.234;7.444;2024-01-07T06:47:49;1.00;99.90
31661;DHT22;18267;52.234;7.444;2024-01-07T06:50:14;0.90;99.90
31661;DHT22;18267;52.234;7.444;2024-01-07T06:52:40;0.90;99.90
31661;DHT22;18267;52.234;7.444;2024-01-07T06:55:06;0.90;99.90
31661;DHT22;18267;52.234;7.444;2024-01-07T06:57:32;0.90;99.90
31661;DHT22;18267;52.234;7.444;2024-01-07T06:59:57;0.90;99.90
31661;DHT22;18267;52.234;7.444;2024-01-07T07:02:23;0.90;99.90
31661;DHT22;18267;52.234;7.444;2024-01-07T07:04:48;0.80;99.90
31661;DHT22;18267;52.234;7.444;2024-01-07T07:07:16;0.70;99.90
31661;DHT22;18267;52.234;7.444;2024-01-07T07:09:41;0.70;99.90
31661;DHT22;18267;52.234;7.444;2024-01-07T07:12:07;0.70;99.90
31661;DHT22;18267;52.234;7.444;2024-01-07T07:14:33;0.60;99.90
31661;DHT22;18267;52.234;7.444;2024-01-07T07:17:00;0.50;99.90
31661;DHT22;18267;52.234;7.444;2024-01-07T07:19:25;0.60;99.90
31661;DHT22;18267;52.234;7.444;2024-01-07T07:21:51;0.60;99.90
31661;DHT22;18267;52.234;7.444;2024-01-07T07:24:17;0.60;99.90
31661;DHT22;18267;52.234;7.444;2024-01-07T07:26:42;0.70;99.90
31661;DHT22;18267;52.234;7.444;2024-01-07T07:29:08;0.70;99.90
31661;DHT22;18267;52.234;7.444;2024-01-07T07:31:36;0.60;99.90
31661;DHT22;18267;52.234;7.444;2024-01-07T07:34:05;0.60;99.90
31661;DHT22;18267;52.234;7.444;2024-01-07T07:36:31;0.60;99.90
31661;DHT22;18267;52.234;7.444;2024-01-07T07:38:57;0.60;99.90
31661;DHT22;18267;52.234;7.444;2024-01-07T07:41:23;0.60;99.90
31661;DHT22;18267;52.234;7.444;2024-01-07T07:43:48;0.60;99.90
31661;DHT22;18267;52.234;7.444;2024-01-07T07:46:14;0.60;99.90
31661;DHT22;18267;52.234;7.444;2024-01-07T07:48:41;0.50;99.90
31661;DHT22;18267;52.234;7.444;2024-01-07T07:51:07;0.60;99.90
31661;DHT22;18267;52.234;7.444;2024-01-07T07:53:33;0.60;99.90
31661;DHT22;18267;52.234;7.444;2024-01-07T07:55:58;0.60;99.90
31661;DHT22;18267;52.234;7.444;2024-01-07T07:58:24;0.60;99.90
31661;DHT22;18267;52.234;7.444;2024-01-07T08:00:50;0.60;99.90
31661;DHT22;18267;52.234;7.444;2024-01-07T08:03:15;0.50;99.90
31661;DHT22;18267;52.234;7.444;2024-01-07T08:05:41;0.60;99.90
31661;DHT22;18267;52.234;7.444;2024-01-07T08:08:07;0.60;99.90
31661;DHT22;18267;52.234;7.444;2024-01-07T08:10:32;0.60;99.90
31661;DHT22;18267;52.234;7.444;2024-01-07T08:13:00;0.70;99.90
31661;DHT22;18267;52.234;7.444;2024-01-07T08:15:25;0.80;99.90
31661;DHT22;18267;52.234;7.444;2024-01-07T08:17:51;0.90;99.90
31661;DHT22;18267;52.234;7.444;2024-01-07T08:20:17;0.80;99.90
31661;DHT22;18267;52.234;7.444;2024-01-07T08:22:42;0.70;99.90
31661;DHT22;18267;52.234;7.444;2024-01-07T08:25:08;0.70;99.90
31661;DHT22;18267;52.234;7.444;2024-01-07T08:27:34;0.80;99.90
31661;DHT22;18267;52.234;7.444;2024-01-07T08:30:01;0.90;99.90
31661;DHT22;18267;52.234;7.444;2024-01-07T08:32:27;0.90;99.90
31661;DHT22;18267;52.234;7.444;2024-01-07T08:34:52;0.90;99.90
31661;DHT22;18267;52.234;7.444;2024-01-07T08:37:18;1.00;99.90
31661;DHT22;18267;52.234;7.444;2024-01-07T08:39:43;0.90;99.90
31661;DHT22;18267;52.234;7.444;2024-01-07T08:42:09;0.80;99.90
31661;DHT22;18267;52.234;7.444;2024-01-07T08:44:35;0.90;99.90
31661;DHT22;18267;52.234;7.444;2024-01-07T08:47:00;0.90;99.90
31661;DHT22;18267;52.234;7.444;2024-01-07T08:49:28;1.00;99.90
31661;DHT22;18267;52.234;7.444;2024-01-07T08:51:53;1.00;99.90
31661;DHT22;18267;52.234;7.444;2024-01-07T08:54:21;1.00;99.90
31661;DHT22;18267;52.234;7.444;2024-01-07T08:56:47;1.10;99.90
31661;DHT22;18267;52.234;7.444;2024-01-07T08:59:12;1.10;99.90
31661;DHT22;18267;52.234;7.444;2024-01-07T09:01:38;1.00;99.90
31661;DHT22;18267;52.234;7.444;2024-01-07T09:04:04;0.90;99.90
31661;DHT22;18267;52.234;7.444;2024-01-07T09:06:29;0.90;99.90
31661;DHT22;18267;52.234;7.444;2024-01-07T09:08:55;0.90;99.90
31661;DHT22;18267;52.234;7.444;2024-01-07T09:11:20;0.80;99.90
31661;DHT22;18267;52.234;7.444;2024-01-07T09:13:46;0.70;99.90
31661;DHT22;18267;52.234;7.444;2024-01-07T09:16:14;0.70;99.90
31661;DHT22;18267;52.234;7.444;2024-01-07T09:18:40;0.70;99.90
31661;DHT22;18267;52.234;7.444;2024-01-07T09:21:06;0.70;99.90
31661;DHT22;18267;52.234;7.444;2024-01-07T09:23:32;0.70;99.90
31661;DHT22;18267;52.234;7.444;2024-01-07T09:25:59;0.80;99.90
31661;DHT22;18267;52.234;7.444;2024-01-07T09:28:25;0.70;99.90
31661;DHT22;18267;52.234;7.444;2024-01-07T09:30:50;0.60;99.90
31661;DHT22;18267;52.234;7.444;2024-01-07T09:33:16;0.60;99.90
31661;DHT22;18267;52.234;7.444;2024-01-07T09:35:42;0.70;99.90
31661;DHT22;18267;52.234;7.444;2024-01-07T09:38:09;0.80;99.90
31661;DHT22;18267;52.234;7.444;2024-01-07T09:40:34;0.70;99.90
31661;DHT22;18267;52.234;7.444;2024-01-07T09:43:00;0.70;99.90
31661;DHT22;18267;52.234;7.444;2024-01-07T09:45:26;0.70;99.90
31661;DHT22;18267;52.234;7.444;2024-01-07T09:47:54;0.70;99.90
31661;DHT22;18267;52.234;7.444;2024-01-07T09:50:19;0.60;99.90
31661;DHT22;18267;52.234;7.444;2024-01-07T09:52:45;0.70;99.90
31661;DHT22;18267;52.234;7.444;2024-01-07T09:55:40;0.70;99.90
31661;DHT22;18267;52.234;7.444;2024-01-07T09:58:10;0.70;99.90
31661;DHT22;18267;52.234;7.444;2024-01-07T10:00:36;0.80;99.90
31661;DHT22;18267;52.234;7.444;2024-01-07T10:03:02;0.70;99.90
31661;DHT22;18267;52.234;7.444;2024-01-07T10:05:28;0.60;99.90
31661;DHT22;18267;52.234;7.444;2024-01-07T10:07:54;0.60;99.90
31661;DHT22;18267;52.234;7.444;2024-01-07T10:10:22;0.60;99.90
31661;DHT22;18267;52.234;7.444;2024-01-07T10:12:48;0.70;99.90
31661;DHT22;18267;52.234;7.444;2024-01-07T10:15:14;0.70;99.90
31661;DHT22;18267;52.234;7.444;2024-01-07T10:17:42;0.70;99.90
31661;DHT22;18267;52.234;7.444;2024-01-07T10:20:08;0.70;99.90
31661;DHT22;18267;52.234;7.444;2024-01-07T10:22:38;0.80;99.90
31661;DHT22;18267;52.234;7.444;2024-01-07T10:25:05;0.80;99.90
31661;DHT22;18267;52.234;7.444;2024-01-07T10:27:34;0.70;99.90
31661;DHT22;18267;52.234;7.444;2024-01-07T10:30:02;0.80;99.90
31661;DHT22;18267;52.234;7.444;2024-01-07T10:32:28;0.80;99.90
31661;DHT22;18267;52.234;7.444;2024-01-07T10:35:01;0.80;99.90
31661;DHT22;18267;52.234;7.444;2024-01-07T10:37:28;0.70;99.90
31661;DHT22;18267;52.234;7.444;2024-01-07T10:39:57;0.70;99.90
31661;DHT22;18267;52.234;7.444;2024-01-07T10:42:23;0.70;99.90
31661;DHT22;18267;52.234;7.444;2024-01-07T10:44:49;0.60;99.90
31661;DHT22;18267;52.234;7.444;2024-01-07T10:47:17;0.60;99.90
31661;DHT22;18267;52.234;7.444;2024-01-07T10:49:48;0.70;99.90
31661;DHT22;18267;52.234;7.444;2024-01-07T10:52:16;0.80;99.90
31661;DHT22;18267;52.234;7.444;2024-01-07T10:54:44;0.80;99.90
31661;DHT22;18267;52.234;7.444;2024-01-07T10:57:42;0.90;99.90
31661;DHT22;18267;52.234;7.444;2024-01-07T11:00:09;0.90;99.90
31661;DHT22;18267;52.234;7.444;2024-01-07T11:02:46;0.90;99.90
31661;DHT22;18267;52.234;7.444;2024-01-07T11:05:23;0.80;99.90
31661;DHT22;18267;52.234;7.444;2024-01-07T11:10:37;0.90;99.90
31661;DHT22;18267;52.234;7.444;2024-01-07T11:13:04;1.00;99.90
31661;DHT22;18267;52.234;7.444;2024-01-07T11:15:53;1.10;99.90
31661;DHT22;18267;52.234;7.444;2024-01-07T11:18:21;1.00;99.90
31661;DHT22;18267;52.234;7.444;2024-01-07T11:20:47;1.10;99.90
31661;DHT22;18267;52.234;7.444;2024-01-07T11:23:35;1.20;99.90
31661;DHT22;18267;52.234;7.444;2024-01-07T11:26:06;1.30;99.90
31661;DHT22;18267;52.234;7.444;2024-01-07T11:28:51;1.40;99.90
31661;DHT22;18267;52.234;7.444;2024-01-07T11:31:19;1.60;99.90
31661;DHT22;18267;52.234;7.444;2024-01-07T11:33:47;1.60;99.90
31661;DHT22;18267;52.234;7.444;2024-01-07T11:36:17;1.60;99.90
31661;DHT22;18267;52.234;7.444;2024-01-07T11:38:50;1.70;99.90
31661;DHT22;18267;52.234;7.444;2024-01-07T11:41:16;1.50;99.90
31661;DHT22;18267;52.234;7.444;2024-01-07T11:43:56;1.40;99.90
31661;DHT22;18267;52.234;7.444;2024-01-07T11:46:27;1.30;99.90
31661;DHT22;18267;52.234;7.444;2024-01-07T11:48:54;1.20;99.90
31661;DHT22;18267;52.234;7.444;2024-01-07T11:51:30;1.30;99.90
31661;DHT22;18267;52.234;7.444;2024-01-07T11:53:57;1.40;99.90
31661;DHT22;18267;52.234;7.444;2024-01-07T11:56:24;1.40;99.90
31661;DHT22;18267;52.234;7.444;2024-01-07T11:58:49;1.50;99.90
31661;DHT22;18267;52.234;7.444;2024-01-07T12:01:16;1.50;99.90
31661;DHT22;18267;52.234;7.444;2024-01-07T12:03:43;1.50;99.90
31661;DHT22;18267;52.234;7.444;2024-01-07T12:06:09;1.50;99.90
31661;DHT22;18267;52.234;7.444;2024-01-07T12:08:42;1.50;99.90
31661;DHT22;18267;52.234;7.444;2024-01-07T12:11:08;1.50;99.90
31661;DHT22;18267;52.234;7.444;2024-01-07T12:13:34;1.60;99.90
31661;DHT22;18267;52.234;7.444;2024-01-07T12:16:00;1.60;99.90
31661;DHT22;18267;52.234;7.444;2024-01-07T12:18:26;1.60;99.90
31661;DHT22;18267;52.234;7.444;2024-01-07T12:20:59;1.60;99.90
31661;DHT22;18267;52.234;7.444;2024-01-07T12:23:25;1.50;99.90
31661;DHT22;18267;52.234;7.444;2024-01-07T12:25:52;1.60;99.90
31661;DHT22;18267;52.234;7.444;2024-01-07T12:28:18;1.60;99.90
31661;DHT22;18267;52.234;7.444;2024-01-07T12:30:47;1.50;99.90
31661;DHT22;18267;52.234;7.444;2024-01-07T12:33:19;1.50;99.90
31661;DHT22;18267;52.234;7.444;2024-01-07T12:35:46;1.50;99.90
31661;DHT22;18267;52.234;7.444;2024-01-07T12:38:12;1.50;99.90
31661;DHT22;18267;52.234;7.444;2024-01-07T12:40:38;1.50;99.90
31661;DHT22;18267;52.234;7.444;2024-01-07T12:43:06;1.50;99.90
31661;DHT22;18267;52.234;7.444;2024-01-07T12:45:35;1.40;99.90
31661;DHT22;18267;52.234;7.444;2024-01-07T12:48:01;1.50;99.90
31661;DHT22;18267;52.234;7.444;2024-01-07T12:50:28;1.50;99.90
31661;DHT22;18267;52.234;7.444;2024-01-07T12:52:56;1.60;99.90
31661;DHT22;18267;52.234;7.444;2024-01-07T12:55:22;1.70;99.90
31661;DHT22;18267;52.234;7.444;2024-01-07T12:57:48;1.80;99.90
31661;DHT22;18267;52.234;7.444;2024-01-07T13:00:15;1.70;99.90
31661;DHT22;18267;52.234;7.444;2024-01-07T13:02:40;1.50;99.90
31661;DHT22;18267;52.234;7.444;2024-01-07T13:05:06;1.50;99.90
31661;DHT22;18267;52.234;7.444;2024-01-07T13:07:32;1.60;99.90
31661;DHT22;18267;52.234;7.444;2024-01-07T13:09:58;1.60;99.90
31661;DHT22;18267;52.234;7.444;2024-01-07T13:12:23;1.60;99.90
31661;DHT22;18267;52.234;7.444;2024-01-07T13:14:49;1.70;99.90
31661;DHT22;18267;52.234;7.444;2024-01-07T13:17:15;1.70;99.90
31661;DHT22;18267;52.234;7.444;2024-01-07T13:19:40;1.70;99.90
31661;DHT22;18267;52.234;7.444;2024-01-07T13:22:07;1.80;99.90
31661;DHT22;18267;52.234;7.444;2024-01-07T13:24:33;1.70;99.90
31661;DHT22;18267;52.234;7.444;2024-01-07T13:26:58;1.60;99.90
31661;DHT22;18267;52.234;7.444;2024-01-07T13:29:24;1.60;99.90
31661;DHT22;18267;52.234;7.444;2024-01-07T13:31:50;1.60;99.90
31661;DHT22;18267;52.234;7.444;2024-01-07T13:34:16;1.70;99.90
31661;DHT22;18267;52.234;7.444;2024-01-07T13:36:43;1.80;99.90
31661;DHT22;18267;52.234;7.444;2024-01-07T13:39:09;1.80;99.90
31661;DHT22;18267;52.234;7.444;2024-01-07T13:41:36;1.80;99.90
31661;DHT22;18267;52.234;7.444;2024-01-07T13:44:01;1.80;99.90
31661;DHT22;18267;52.234;7.444;2024-01-07T13:46:28;1.90;99.90
31661;DHT22;18267;52.234;7.444;2024-01-07T13:48:54;1.70;99.90
31661;DHT22;18267;52.234;7.444;2024-01-07T13:51:20;1.70;99.90
31661;DHT22;18267;52.234;7.444;2024-01-07T13:53:45;1.70;99.90
31661;DHT22;18267;52.234;7.444;2024-01-07T13:56:12;1.50;99.90
31661;DHT22;18267;52.234;7.444;2024-01-07T13:58:37;1.50;99.90
31661;DHT22;18267;52.234;7.444;2024-01-07T14:01:03;1.40;99.90
31661;DHT22;18267;52.234;7.444;2024-01-07T14:03:31;1.50;99.90
31661;DHT22;18267;52.234;7.444;2024-01-07T14:05:58;1.40;99.90
31661;DHT22;18267;52.234;7.444;2024-01-07T14:08:24;1.50;99.90
31661;DHT22;18267;52.234;7.444;2024-01-07T14:10:49;1.60;99.90
31661;DHT22;18267;52.234;7.444;2024-01-07T14:13:15;1.60;99.90
31661;DHT22;18267;52.234;7.444;2024-01-07T14:15:40;1.60;99.90
31661;DHT22;18267;52.234;7.444;2024-01-07T14:18:06;1.50;99.90
31661;DHT22;18267;52.234;7.444;2024-01-07T14:20:32;1.60;99.90
31661;DHT22;18267;52.234;7.444;2024-01-07T14:22:57;1.60;99.90
31661;DHT22;18267;52.234;7.444;2024-01-07T14:25:24;1.50;99.90
31661;DHT22;18267;52.234;7.444;2024-01-07T14:27:49;1.50;99.90
31661;DHT22;18267;52.234;7.444;2024-01-07T14:30:15;1.50;99.90
31661;DHT22;18267;52.234;7.444;2024-01-07T14:32:41;1.50;99.90
31661;DHT22;18267;52.234;7.444;2024-01-07T14:35:07;1.50;99.90
31661;DHT22;18267;52.234;7.444;2024-01-07T14:37:33;1.50;99.90
31661;DHT22;18267;52.234;7.444;2024-01-07T14:39:58;1.50;99.90
31661;DHT22;18267;52.234;7.444;2024-01-07T14:42:24;1.50;99.90
31661;DHT22;18267;52.234;7.444;2024-01-07T14:44:49;1.70;99.90
31661;DHT22;18267;52.234;7.444;2024-01-07T14:47:15;1.70;99.90
31661;DHT22;18267;52.234;7.444;2024-01-07T14:49:41;1.70;99.90
31661;DHT22;18267;52.234;7.444;2024-01-07T14:52:07;1.70;99.90
31661;DHT22;18267;52.234;7.444;2024-01-07T14:54:32;1.80;99.90
31661;DHT22;18267;52.234;7.444;2024-01-07T14:57:00;1.80;99.90
31661;DHT22;18267;52.234;7.444;2024-01-07T14:59:26;1.80;99.90
31661;DHT22;18267;52.234;7.444;2024-01-07T15:01:51;1.70;99.90
31661;DHT22;18267;52.234;7.444;2024-01-07T15:04:19;1.70;99.90
31661;DHT22;18267;52.234;7.444;2024-01-07T15:06:44;1.70;99.90
31661;DHT22;18267;52.234;7.444;2024-01-07T15:09:11;1.60;99.90
31661;DHT22;18267;52.234;7.444;2024-01-07T15:11:39;1.50;99.90
31661;DHT22;18267;52.234;7.444;2024-01-07T15:14:08;1.40;99.90
31661;DHT22;18267;52.234;7.444;2024-01-07T15:16:35;1.50;99.90
31661;DHT22;18267;52.234;7.444;2024-01-07T15:19:01;1.50;99.90
31661;DHT22;18267;52.234;7.444;2024-01-07T15:21:27;1.50;99.90
31661;DHT22;18267;52.234;7.444;2024-01-07T15:23:53;1.40;99.90
31661;DHT22;18267;52.234;7.444;2024-01-07T15:26:18;1.50;99.90
31661;DHT22;18267;52.234;7.444;2024-01-07T15:28:44;1.40;99.90
31661;DHT22;18267;52.234;7.444;2024-01-07T15:31:09;1.50;99.90
31661;DHT22;18267;52.234;7.444;2024-01-07T15:33:35;1.40;99.90
31661;DHT22;18267;52.234;7.444;2024-01-07T15:36:03;1.30;99.90
31661;DHT22;18267;52.234;7.444;2024-01-07T15:38:28;1.30;99.90
31661;DHT22;18267;52.234;7.444;2024-01-07T15:40:54;1.20;99.90
31661;DHT22;18267;52.234;7.444;2024-01-07T15:43:20;1.20;99.90